Time;durP1;ratioP1;P1;durP2;ratioP2;P2;SDS_P1;SDS_P2;PMS_P1;PMS_P2;Temp;Humidity;BMP_temperature;BMP_pressure;BME280_temperature;BME280_humidity;BME280_pressure;Samples;Min_cycle;Max_cycle;Signal;HPM_P1;HPM_P2
2022/09/06 00:00:14;;;;;;;12.25;10.35;;;512.30;2380.80;;;;;;5084840;28;20025;-83
2022/09/06 00:02:40;;;;;;;12.55;10.40;;;512.30;2380.80;;;;;;5086488;28;20021;-80
2022/09/06 00:05:08;;;;;;;12.05;9.98;;;512.20;2380.80;;;;;;5089147;28;20020;-85
2022/09/06 00:07:34;;;;;;;10.07;9.02;;;512.20;2380.80;;;;;;5087356;28;20137;-82
2022/09/06 00:10:00;;;;;;;12.20;10.45;;;512.20;2380.80;;;;;;5081874;28;20597;-84
2022/09/06 00:12:26;;;;;;;14.35;9.82;;;512.20;2380.80;;;;;;5079745;28;20058;-82
2022/09/06 00:14:52;;;;;;;14.63;11.05;;;512.20;2380.80;;;;;;5082441;28;20420;-85
2022/09/06 00:17:18;;;;;;;16.33;10.45;;;512.10;2380.80;;;;;;5085813;28;20052;-86
2022/09/06 00:19:44;;;;;;;13.07;10.35;;;512.00;2380.80;;;;;;5075110;28;20017;-85
2022/09/06 00:22:10;;;;;;;12.82;10.77;;;512.10;2380.80;;;;;;5084349;28;20020;-82
2022/09/06 00:24:37;;;;;;;11.25;9.57;;;512.10;2380.80;;;;;;5085862;28;20020;-84
2022/09/06 00:27:04;;;;;;;17.73;11.60;;;512.10;2380.80;;;;;;5081106;28;20032;-85
2022/09/06 00:29:30;;;;;;;13.57;10.80;;;512.10;2380.80;;;;;;5084306;28;20020;-86
2022/09/06 00:31:56;;;;;;;15.27;11.05;;;512.00;2380.80;;;;;;5085683;28;20110;-85
2022/09/06 00:34:21;;;;;;;11.30;9.65;;;487.30;2380.80;;;;;;5084644;28;20067;-83
2022/09/06 00:36:47;;;;;;;11.80;10.43;;;487.30;2380.80;;;;;;5083667;28;20020;-85
2022/09/06 00:39:14;;;;;;;12.40;9.70;;;487.30;2380.80;;;;;;5092112;28;20020;-85
2022/09/06 00:41:40;;;;;;;11.48;10.27;;;487.30;2380.80;;;;;;5081836;28;20104;-85
2022/09/06 00:44:05;;;;;;;12.77;9.95;;;487.30;2380.80;;;;;;5088617;28;20472;-85
2022/09/06 00:46:32;;;;;;;12.52;10.35;;;487.30;2380.80;;;;;;5080480;28;20031;-85
2022/09/06 00:49:06;;;;;;;15.02;10.70;;;487.20;2380.80;;;;;;5085908;28;20500;-84
2022/09/06 00:51:33;;;;;;;10.50;9.40;;;487.20;2380.80;;;;;;5087213;28;20134;-85
2022/09/06 00:54:02;;;;;;;12.07;9.77;;;487.20;2380.80;;;;;;5084876;28;20054;-85
2022/09/06 00:56:30;;;;;;;12.35;10.23;;;487.20;2380.80;;;;;;5073911;28;20026;-85
2022/09/06 00:58:56;;;;;;;16.67;11.25;;;487.20;2380.80;;;;;;5076818;28;20496;-85
2022/09/06 01:01:22;;;;;;;12.90;10.68;;;487.10;2380.80;;;;;;5084807;28;20035;-83
2022/09/06 01:03:49;;;;;;;12.65;10.57;;;487.10;2380.80;;;;;;5079398;28;20017;-85
2022/09/06 01:06:25;;;;;;;14.05;10.23;;;487.00;2380.80;;;;;;5075523;28;20103;-85
2022/09/06 01:09:21;;;;;;;15.02;9.60;;;487.00;2380.80;;;;;;5077037;28;20048;-85
2022/09/06 01:12:08;;;;;;;18.35;9.32;;;487.10;2380.80;;;;;;5091127;28;20039;-84
2022/09/06 01:14:49;;;;;;;11.88;9.52;;;487.20;2380.80;;;;;;5078587;28;20024;-85
2022/09/06 01:17:46;;;;;;;14.13;11.05;;;487.10;2380.80;;;;;;5076177;28;20036;-83
2022/09/06 01:20:41;;;;;;;13.35;11.05;;;486.90;2380.80;;;;;;5091598;28;20029;-84
2022/09/06 01:23:38;;;;;;;13.75;10.95;;;487.00;2380.80;;;;;;5088035;28;20020;-85
2022/09/06 01:26:41;;;;;;;13.35;10.93;;;486.80;2380.80;;;;;;5067513;28;20017;-84
2022/09/06 01:29:35;;;;;;;13.13;10.82;;;486.80;2380.80;;;;;;5096508;28;20382;-84
2022/09/06 01:32:17;;;;;;;12.07;10.63;;;487.00;2380.80;;;;;;5084086;28;20028;-84
2022/09/06 01:35:08;;;;;;;12.43;10.68;;;486.80;2380.80;;;;;;5061593;28;20175;-85
2022/09/06 01:37:35;;;;;;;14.70;10.48;;;486.70;2380.80;;;;;;5075082;28;20032;-84
2022/09/06 01:40:01;;;;;;;11.93;10.43;;;486.80;2380.80;;;;;;5086213;28;20012;-86
2022/09/06 01:42:30;;;;;;;16.08;10.70;;;486.80;2380.80;;;;;;5081830;28;20146;-85
2022/09/06 01:45:00;;;;;;;14.27;11.35;;;486.80;2380.80;;;;;;5091146;28;20023;-81
2022/09/06 01:47:47;;;;;;;13.07;10.38;;;486.80;2380.80;;;;;;5091366;28;20496;-85
2022/09/06 01:50:12;;;;;;;;;;;486.80;2380.80;;;;;;5092338;28;20024;-82
2022/09/06 01:52:50;;;;;;;16.33;11.93;;;486.80;2380.80;;;;;;5087646;28;19912;-86
2022/09/06 01:55:22;;;;;;;19.33;12.18;;;486.80;2380.80;;;;;;5077065;28;20035;-84
2022/09/06 01:58:09;;;;;;;17.23;11.23;;;486.80;2380.80;;;;;;5090947;28;20027;-85
2022/09/06 02:00:55;;;;;;;14.63;11.57;;;486.80;2380.80;;;;;;5090991;28;20032;-83
2022/09/06 02:03:31;;;;;;;14.27;10.70;;;486.90;2380.80;;;;;;5070081;28;20497;-84
2022/09/06 02:06:05;;;;;;;16.30;11.05;;;487.00;2380.80;;;;;;5079271;28;20024;-85
2022/09/06 02:08:39;;;;;;;15.85;11.70;;;487.00;2380.80;;;;;;5078430;28;20020;-84
2022/09/06 02:11:07;;;;;;;16.17;11.25;;;486.80;2380.80;;;;;;5090092;28;20028;-82
2022/09/06 02:13:40;;;;;;;14.55;10.70;;;486.80;2380.80;;;;;;5111523;28;20011;-79
2022/09/06 02:16:09;;;;;;;15.95;11.85;;;486.80;2380.80;;;;;;5112120;28;20030;-81
2022/09/06 02:18:39;;;;;;;16.13;11.82;;;486.80;2380.80;;;;;;5089617;28;20056;-85
2022/09/06 02:21:05;;;;;;;15.07;11.15;;;486.80;2380.80;;;;;;5084667;28;20035;-85
2022/09/06 02:23:35;;;;;;;14.45;11.80;;;486.90;2380.80;;;;;;5083158;28;20032;-84
2022/09/06 02:26:12;;;;;;;17.45;12.32;;;486.80;2380.80;;;;;;5083396;28;20041;-84
2022/09/06 02:28:39;;;;;;;18.88;11.68;;;486.80;2380.80;;;;;;5083919;28;20016;-84
2022/09/06 02:31:30;;;;;;;14.75;12.15;;;486.80;2380.80;;;;;;5080438;28;20059;-84
2022/09/06 02:33:56;;;;;;;14.93;12.00;;;486.80;2380.80;;;;;;5078174;28;20351;-86
2022/09/06 02:36:23;;;;;;;14.73;11.43;;;486.80;2380.80;;;;;;5088254;28;20158;-84
2022/09/06 02:38:49;;;;;;;13.43;11.45;;;486.80;2380.80;;;;;;5088252;28;20031;-82
2022/09/06 02:41:21;;;;;;;15.82;12.38;;;486.70;2380.80;;;;;;5077219;28;20033;-85
2022/09/06 02:43:48;;;;;;;14.98;11.77;;;486.70;2380.80;;;;;;5082741;28;20119;-84
2022/09/06 02:46:14;;;;;;;15.52;11.75;;;486.70;2380.80;;;;;;5088032;28;20036;-84
2022/09/06 02:48:39;;;;;;;15.73;12.55;;;486.60;2380.80;;;;;;5086558;28;20134;-86
2022/09/06 02:51:07;;;;;;;16.90;12.38;;;486.60;2380.80;;;;;;5085388;28;20036;-82
2022/09/06 02:53:33;;;;;;;16.58;12.65;;;486.60;2380.80;;;;;;5085143;28;20043;-85
2022/09/06 02:55:59;;;;;;;15.23;11.73;;;486.50;2380.80;;;;;;5079331;28;20028;-86
2022/09/06 02:58:25;;;;;;;17.48;12.23;;;486.50;2380.80;;;;;;5091025;28;20027;-85
2022/09/06 03:00:52;;;;;;;14.57;11.27;;;486.40;2380.80;;;;;;5079045;28;20094;-85
2022/09/06 03:03:19;;;;;;;14.63;12.50;;;486.50;2380.80;;;;;;5086491;28;20032;-85
2022/09/06 03:05:52;;;;;;;15.15;12.05;;;486.50;2380.80;;;;;;5091749;28;20024;-85
2022/09/06 03:08:19;;;;;;;16.40;11.30;;;486.50;2380.80;;;;;;5085150;28;20039;-84
2022/09/06 03:10:49;;;;;;;17.70;12.35;;;486.50;2380.80;;;;;;5085538;28;20032;-80
2022/09/06 03:13:15;;;;;;;16.75;12.82;;;486.50;2380.80;;;;;;5073112;28;20366;-82
2022/09/06 03:15:41;;;;;;;23.20;13.43;;;486.40;2380.80;;;;;;5085460;28;20047;-84
2022/09/06 03:18:07;;;;;;;20.38;12.98;;;461.70;2380.80;;;;;;5086979;28;20040;-83
2022/09/06 03:20:33;;;;;;;20.00;13.18;;;461.70;2380.80;;;;;;5093077;28;20028;-82
2022/09/06 03:22:58;;;;;;;14.82;11.55;;;461.60;2380.80;;;;;;5093435;28;20034;-83
2022/09/06 03:25:24;;;;;;;16.40;11.23;;;461.60;2380.80;;;;;;5093517;28;20393;-84
2022/09/06 03:27:50;;;;;;;18.65;13.00;;;461.50;2380.80;;;;;;5094938;28;20024;-86
2022/09/06 03:30:16;;;;;;;18.83;13.63;;;461.50;2380.80;;;;;;5093610;28;20020;-86
2022/09/06 03:32:42;;;;;;;19.38;11.98;;;461.50;2380.80;;;;;;5093436;28;20566;-86
2022/09/06 03:35:09;;;;;;;17.42;12.93;;;461.50;2380.80;;;;;;5093490;28;20016;-83
2022/09/06 03:37:35;;;;;;;19.65;13.18;;;461.40;2380.80;;;;;;5093279;28;20477;-84
2022/09/06 03:40:02;;;;;;;19.25;14.07;;;461.60;2380.80;;;;;;5093240;28;20501;-86
2022/09/06 03:42:28;;;;;;;21.55;13.68;;;461.50;2380.80;;;;;;5094018;28;20085;-84
2022/09/06 03:44:54;;;;;;;21.23;13.13;;;461.60;2380.80;;;;;;5092822;28;20020;-87
2022/09/06 03:47:20;;;;;;;19.15;13.13;;;461.50;2380.80;;;;;;5092715;28;20024;-84
2022/09/06 03:49:46;;;;;;;18.33;13.20;;;461.40;2380.80;;;;;;5093167;28;20028;-83
2022/09/06 03:52:12;;;;;;;16.52;12.40;;;461.40;2380.80;;;;;;5093070;28;20054;-85
2022/09/06 03:54:38;;;;;;;20.33;12.20;;;461.40;2380.80;;;;;;5092415;28;20067;-87
2022/09/06 03:57:04;;;;;;;16.15;12.23;;;461.40;2380.80;;;;;;5079664;28;20123;-84
2022/09/06 03:59:29;;;;;;;16.90;12.48;;;461.40;2380.80;;;;;;5091635;28;20028;-88
2022/09/06 04:01:55;;;;;;;15.00;11.52;;;461.50;2380.80;;;;;;5092941;28;20110;-86
2022/09/06 04:04:21;;;;;;;14.80;11.95;;;461.60;2380.80;;;;;;5092550;28;20040;-83
2022/09/06 04:06:46;;;;;;;14.55;11.85;;;461.30;2380.80;;;;;;5092153;28;20056;-85
2022/09/06 04:09:13;;;;;;;15.77;11.35;;;461.40;2380.80;;;;;;5092065;28;20060;-81
2022/09/06 04:11:39;;;;;;;16.35;12.32;;;461.40;2380.80;;;;;;5092684;28;20028;-81
2022/09/06 04:14:05;;;;;;;17.27;13.00;;;461.30;2380.80;;;;;;5092730;28;20024;-80
2022/09/06 04:16:30;;;;;;;15.90;12.00;;;461.20;2380.80;;;;;;5091982;28;20063;-84
2022/09/06 04:18:58;;;;;;;15.38;12.55;;;461.20;2380.80;;;;;;5081133;28;20024;-84
2022/09/06 04:21:24;;;;;;;16.30;11.98;;;461.20;2380.80;;;;;;5086243;28;20095;-83
2022/09/06 04:23:50;;;;;;;19.25;12.88;;;461.40;2380.80;;;;;;5082072;28;20020;-86
2022/09/06 04:26:16;;;;;;;29.80;13.73;;;461.40;2380.80;;;;;;5093451;28;20028;-83
2022/09/06 04:28:41;;;;;;;25.45;13.27;;;461.50;2380.80;;;;;;5084654;28;20024;-82
2022/09/06 04:31:07;;;;;;;18.48;12.77;;;461.50;2380.80;;;;;;5085650;28;20411;-81
2022/09/06 04:33:35;;;;;;;17.42;12.18;;;461.50;2380.80;;;;;;5077601;28;20492;-83
2022/09/06 04:36:02;;;;;;;15.38;11.38;;;461.30;2380.80;;;;;;5092308;28;20058;-85
2022/09/06 04:38:30;;;;;;;16.00;12.13;;;461.50;2380.80;;;;;;5092012;28;20111;-86
2022/09/06 04:40:55;;;;;;;21.27;12.90;;;461.50;2380.80;;;;;;5092144;28;20027;-85
2022/09/06 04:43:22;;;;;;;16.90;11.50;;;461.50;2380.80;;;;;;5091943;28;20028;-81
2022/09/06 04:45:48;;;;;;;17.98;12.60;;;461.50;2380.80;;;;;;5091930;28;20039;-81
2022/09/06 04:48:14;;;;;;;22.40;12.20;;;461.50;2380.80;;;;;;5091976;28;20024;-86
2022/09/06 04:50:40;;;;;;;17.55;13.32;;;461.50;2380.80;;;;;;5092196;28;20024;-87
2022/09/06 04:53:06;;;;;;;23.40;13.88;;;461.50;2380.80;;;;;;5092241;28;20085;-89
2022/09/06 04:55:32;;;;;;;18.67;12.57;;;461.70;2380.80;;;;;;5092346;28;20081;-85
2022/09/06 04:57:59;;;;;;;19.45;13.38;;;461.70;2380.80;;;;;;5092254;28;20088;-83
2022/09/06 05:00:26;;;;;;;21.60;13.10;;;486.40;2380.80;;;;;;5093106;28;20377;-84
2022/09/06 05:02:52;;;;;;;22.35;13.25;;;486.40;2380.80;;;;;;5092175;28;20505;-83
2022/09/06 05:05:17;;;;;;;18.08;12.77;;;486.40;2380.80;;;;;;5091817;28;20066;-84
2022/09/06 05:07:43;;;;;;;28.65;15.02;;;486.50;2380.80;;;;;;5092125;28;20035;-85
2022/09/06 05:10:09;;;;;;;23.17;13.77;;;486.50;2380.80;;;;;;5092183;28;20035;-81
2022/09/06 05:12:34;;;;;;;19.13;13.23;;;486.70;2380.80;;;;;;5091646;28;20032;-83
2022/09/06 05:15:01;;;;;;;20.92;13.45;;;;;;;;;;5091728;28;20040;-85
2022/09/06 05:17:26;;;;;;;21.80;13.85;;;486.70;2380.80;;;;;;5091193;28;20378;-85
2022/09/06 05:19:52;;;;;;;19.77;13.15;;;486.80;2380.80;;;;;;5080970;28;20027;-84
2022/09/06 05:22:18;;;;;;;17.35;12.20;;;486.80;2380.80;;;;;;5096033;28;20035;-82
2022/09/06 05:24:45;;;;;;;16.67;12.60;;;486.80;2380.80;;;;;;5095850;28;20016;-83
2022/09/06 05:27:11;;;;;;;17.40;12.40;;;487.00;2380.80;;;;;;5095613;28;20389;-85
2022/09/06 05:29:37;;;;;;;16.80;13.13;;;487.10;2380.80;;;;;;5095900;28;20427;-82
2022/09/06 05:32:03;;;;;;;16.20;12.25;;;487.10;2380.80;;;;;;5095272;28;20028;-83
2022/09/06 05:34:29;;;;;;;17.92;12.57;;;487.20;2380.80;;;;;;5095790;28;20043;-82
2022/09/06 05:36:55;;;;;;;21.55;14.55;;;487.30;2380.80;;;;;;5082459;28;20019;-86
2022/09/06 05:39:21;;;;;;;21.75;13.95;;;487.30;2380.80;;;;;;5096120;28;20024;-85
2022/09/06 05:41:46;;;;;;;17.27;13.68;;;512.10;2380.80;;;;;;5096827;28;20020;-86
2022/09/06 05:44:13;;;;;;;20.48;13.07;;;512.10;2380.80;;;;;;5098805;28;20016;-85
2022/09/06 05:46:44;;;;;;;22.10;13.80;;;512.20;2380.80;;;;;;5117580;28;20019;-79
2022/09/06 05:49:11;;;;;;;23.80;15.60;;;512.40;2380.80;;;;;;5100869;28;20018;-82
2022/09/06 05:51:36;;;;;;;19.92;14.13;;;512.40;2380.80;;;;;;5091844;28;20032;-83
2022/09/06 05:54:02;;;;;;;19.73;14.52;;;512.60;2380.80;;;;;;5095509;28;20107;-85
2022/09/06 05:56:28;;;;;;;25.13;15.00;;;512.60;2380.80;;;;;;5095673;28;20034;-84
2022/09/06 05:58:54;;;;;;;17.98;13.35;;;512.60;2380.80;;;;;;5095289;28;20020;-84
2022/09/06 06:01:26;;;;;;;20.38;15.25;;;512.70;2380.80;;;;;;5095386;28;20024;-84
2022/09/06 06:03:53;;;;;;;39.45;18.48;;;512.70;2380.80;;;;;;5095322;28;20016;-83
2022/09/06 06:06:19;;;;;;;23.15;16.42;;;512.80;2380.80;;;;;;5095308;28;20024;-84
2022/09/06 06:08:45;;;;;;;18.35;14.52;;;512.80;2380.80;;;;;;5095177;28;20028;-84
2022/09/06 06:11:11;;;;;;;19.58;15.10;;;512.90;2380.80;;;;;;5094875;28;20028;-86
2022/09/06 06:13:38;;;;;;;16.95;12.80;;;537.60;2406.40;;;;;;5095654;28;20024;-84
2022/09/06 06:16:09;;;;;;;22.38;14.85;;;537.70;2406.40;;;;;;5094890;28;20031;-84
2022/09/06 06:18:35;;;;;;;20.00;15.85;;;537.80;2406.40;;;;;;5086465;28;20056;-85
2022/09/06 06:21:14;;;;;;;22.08;17.70;;;538.00;2406.40;;;;;;5089182;28;20462;-85
2022/09/06 06:23:41;;;;;;;22.02;15.95;;;538.00;2406.40;;;;;;5096104;28;20111;-81
2022/09/06 06:26:08;;;;;;;19.38;13.90;;;538.00;2406.40;;;;;;5094914;28;20473;-84
2022/09/06 06:28:35;;;;;;;21.35;12.88;;;538.00;2406.40;;;;;;5094116;28;20055;-83
2022/09/06 06:31:02;;;;;;;22.25;13.77;;;538.10;2406.40;;;;;;5093982;28;20545;-81
2022/09/06 06:33:29;;;;;;;16.60;12.93;;;538.20;2406.40;;;;;;5094524;28;20032;-85
2022/09/06 06:36:00;;;;;;;21.80;13.30;;;538.20;2406.40;;;;;;5095415;28;20480;-84
2022/09/06 06:38:34;;;;;;;17.67;13.25;;;538.30;2406.40;;;;;;5081723;28;20024;-86
2022/09/06 06:41:00;;;;;;;20.30;13.40;;;538.30;2406.40;;;;;;5090349;28;20027;-90
2022/09/06 06:43:27;;;;;;;20.15;13.30;;;538.40;2406.40;;;;;;5094114;28;20024;-89
2022/09/06 06:45:53;;;;;;;23.63;12.70;;;538.50;2406.40;;;;;;5094494;28;20040;-88
2022/09/06 06:48:20;;;;;;;18.13;13.43;;;563.20;2432.00;;;;;;5094894;28;20024;-89
2022/09/06 06:50:46;;;;;;;21.02;12.35;;;563.40;2432.00;;;;;;5094839;28;20028;-90
2022/09/06 06:53:12;;;;;;;18.15;13.20;;;563.50;2432.00;;;;;;5094288;28;20139;-91
2022/09/06 06:55:38;;;;;;;16.67;11.02;;;563.60;2432.00;;;;;;5094352;28;20393;-85
2022/09/06 06:58:03;;;;;;;14.75;12.27;;;563.70;2432.00;;;;;;5094467;28;20465;-88
2022/09/06 07:00:29;;;;;;;18.80;13.07;;;563.80;2432.00;;;;;;5094290;28;20111;-85
2022/09/06 07:02:56;;;;;;;14.30;11.00;;;564.00;2432.00;;;;;;5094411;28;20363;-90
2022/09/06 07:05:23;;;;;;;18.63;12.38;;;564.10;2432.00;;;;;;5092820;28;20028;-93
2022/09/06 07:07:49;;;;;;;20.27;12.35;;;588.90;2432.00;;;;;;5081662;28;20031;-83
2022/09/06 07:10:15;;;;;;;15.95;12.50;;;589.00;2432.00;;;;;;5093940;28;20020;-88
2022/09/06 07:12:41;;;;;;;21.52;12.35;;;589.20;2432.00;;;;;;5079457;28;20036;-86
2022/09/06 07:15:08;;;;;;;17.90;13.38;;;589.20;2432.00;;;;;;5093196;28;20115;-84
2022/09/06 07:17:34;;;;;;;15.52;10.88;;;589.30;2432.00;;;;;;5093311;28;20504;-82
2022/09/06 07:20:00;;;;;;;20.65;12.38;;;589.30;2432.00;;;;;;5065559;28;20020;-85
2022/09/06 07:22:26;;;;;;;15.10;10.77;;;589.50;2432.00;;;;;;5094762;28;20043;-85
2022/09/06 07:24:51;;;;;;;15.32;11.35;;;589.50;2432.00;;;;;;5094020;28;20410;-84
2022/09/06 07:27:17;;;;;;;13.73;9.90;;;589.60;2432.00;;;;;;5093446;28;20031;-84
2022/09/06 07:29:43;;;;;;;15.30;9.65;;;589.70;2432.00;;;;;;5077425;28;20021;-82
2022/09/06 07:32:09;;;;;;;12.07;9.10;;;614.40;2432.00;;;;;;5081461;28;20028;-84
2022/09/06 07:34:36;;;;;;;14.15;10.05;;;614.40;2432.00;;;;;;5093213;28;20059;-84
2022/09/06 07:37:02;;;;;;;12.23;8.68;;;614.50;2432.00;;;;;;5066980;28;20058;-83
2022/09/06 07:39:28;;;;;;;15.82;9.00;;;614.60;2432.00;;;;;;5093267;28;20027;-84
2022/09/06 07:41:54;;;;;;;14.48;8.98;;;614.70;2432.00;;;;;;5089218;28;20025;-82
2022/09/06 07:44:19;;;;;;;14.52;9.25;;;614.70;2432.00;;;;;;5083385;28;20034;-82
2022/09/06 07:46:45;;;;;;;13.57;8.70;;;614.70;2432.00;;;;;;5092964;28;20081;-84
2022/09/06 07:49:11;;;;;;;17.00;8.55;;;614.80;2432.00;;;;;;5092993;28;20016;-87
2022/09/06 07:51:37;;;;;;;12.25;8.85;;;614.80;2432.00;;;;;;5093047;28;20028;-86
2022/09/06 07:54:03;;;;;;;11.73;8.45;;;614.90;2432.00;;;;;;5092358;28;20058;-84
2022/09/06 07:56:29;;;;;;;17.75;9.98;;;614.90;2432.00;;;;;;5093222;28;20032;-82
2022/09/06 07:58:56;;;;;;;11.88;8.32;;;615.00;2432.00;;;;;;5094235;28;20041;-87
2022/09/06 08:01:29;;;;;;;12.93;8.05;;;;;;;;;;5092887;28;20028;-87
2022/09/06 08:03:57;;;;;;;11.73;8.30;;;615.00;2432.00;;;;;;5093098;28;20016;-88
2022/09/06 08:06:24;;;;;;;11.40;8.68;;;615.10;2432.00;;;;;;5093038;28;20028;-84
2022/09/06 08:08:50;;;;;;;12.30;8.32;;;615.10;2432.00;;;;;;5093105;28;20024;-89
2022/09/06 08:11:16;;;;;;;10.82;7.78;;;615.20;2432.00;;;;;;5092105;28;20036;-87
2022/09/06 08:13:42;;;;;;;11.70;7.30;;;615.20;2432.00;;;;;;5093221;28;20530;-84
2022/09/06 08:16:10;;;;;;;13.43;8.27;;;640.00;2432.00;;;;;;5072075;28;20032;-86
2022/09/06 08:18:36;;;;;;;16.02;8.27;;;640.00;2432.00;;;;;;5076417;28;20122;-81
2022/09/06 08:21:10;;;;;;;9.63;7.57;;;640.00;2432.00;;;;;;5086820;28;20089;-86
2022/09/06 08:23:55;;;;;;;10.77;7.30;;;640.10;2432.00;;;;;;5092488;28;20016;-86
2022/09/06 08:26:23;;;;;;;13.52;7.30;;;640.10;2432.00;;;;;;5087686;28;20574;-81
2022/09/06 08:28:54;;;;;;;10.88;6.55;;;640.20;2432.00;;;;;;5091743;28;20020;-81
2022/09/06 08:31:20;;;;;;;9.52;6.28;;;640.20;2432.00;;;;;;5091886;28;20063;-81
2022/09/06 08:33:46;;;;;;;9.32;6.65;;;640.40;2432.00;;;;;;5091883;28;20482;-81
2022/09/06 08:36:13;;;;;;;10.07;6.32;;;640.40;2432.00;;;;;;5091815;28;20034;-81
2022/09/06 08:38:39;;;;;;;7.93;6.60;;;640.50;2432.00;;;;;;5091769;28;20110;-81
2022/09/06 08:41:06;;;;;;;9.93;6.95;;;640.50;2432.00;;;;;;5091872;28;20028;-84
2022/09/06 08:43:33;;;;;;;8.73;7.05;;;640.50;2432.00;;;;;;5092193;28;20474;-85
2022/09/06 08:45:59;;;;;;;11.50;7.43;;;640.50;2432.00;;;;;;5091698;28;20062;-81
2022/09/06 08:48:30;;;;;;;11.98;7.18;;;640.60;2432.00;;;;;;5091968;28;20020;-82
2022/09/06 08:51:05;;;;;;;13.32;7.75;;;640.60;2432.00;;;;;;5091708;28;20020;-82
2022/09/06 08:53:37;;;;;;;10.35;6.32;;;640.80;2432.00;;;;;;5091405;28;20028;-82
2022/09/06 08:56:09;;;;;;;10.88;5.80;;;640.90;2432.00;;;;;;5091726;28;20120;-82
2022/09/06 08:58:58;;;;;;;10.65;6.20;;;640.90;2432.00;;;;;;5091576;28;20028;-83
2022/09/06 09:01:29;;;;;;;7.28;5.78;;;665.60;2432.00;;;;;;5092125;28;20091;-84
2022/09/06 09:03:57;;;;;;;9.77;5.70;;;665.60;2432.00;;;;;;5088579;28;20020;-81
2022/09/06 09:06:25;;;;;;;7.10;5.70;;;665.70;2252.80;;;;;;5082707;28;20473;-81
2022/09/06 09:09:06;;;;;;;7.53;5.97;;;665.70;2432.00;;;;;;5090745;28;20032;-80
2022/09/06 09:11:34;;;;;;;8.60;5.28;;;665.90;2355.20;;;;;;5091232;28;20063;-81
2022/09/06 09:14:06;;;;;;;7.07;5.40;;;666.00;2150.40;;;;;;5091165;28;20016;-80
2022/09/06 09:16:32;;;;;;;5.82;4.65;;;666.00;2201.60;;;;;;5091410;28;20059;-81
2022/09/06 09:19:03;;;;;;;7.80;4.85;;;666.20;2073.60;;;;;;5080511;28;20036;-84
2022/09/06 09:21:36;;;;;;;5.82;4.53;;;666.30;2048.00;;;;;;5105818;28;20009;-83
2022/09/06 09:24:05;;;;;;;6.40;5.03;;;666.40;1996.80;;;;;;5117373;28;20083;-83
2022/09/06 09:26:50;;;;;;;6.45;4.10;;;666.50;2124.80;;;;;;5101871;28;20035;-82
2022/09/06 09:29:16;;;;;;;6.45;5.05;;;666.50;1920.00;;;;;;5092910;28;20084;-86
2022/09/06 09:31:49;;;;;;;5.72;4.43;;;666.50;1894.40;;;;;;5092056;28;20038;-84
2022/09/06 09:34:38;;;;;;;6.57;4.40;;;691.20;1971.20;;;;;;5093041;28;20020;-86
2022/09/06 09:37:16;;;;;;;6.28;4.63;;;691.40;1843.20;;;;;;5091758;28;20012;-83
2022/09/06 09:39:42;;;;;;;6.25;4.63;;;691.60;1843.20;;;;;;5092698;28;20153;-83
2022/09/06 09:42:08;;;;;;;7.10;4.22;;;691.70;1792.00;;;;;;5091888;28;20016;-86
2022/09/06 09:44:41;;;;;;;8.43;4.90;;;691.80;1843.20;;;;;;5091570;28;20043;-85
2022/09/06 09:47:27;;;;;;;5.30;4.28;;;691.70;1817.60;;;;;;5091634;28;20051;-86
2022/09/06 09:49:54;;;;;;;6.35;4.40;;;691.90;1817.60;;;;;;5092093;28;20052;-86
2022/09/06 09:52:28;;;;;;;5.63;4.25;;;692.00;1792.00;;;;;;5063652;28;20139;-85
2022/09/06 09:55:00;;;;;;;10.40;5.50;;;692.10;1868.80;;;;;;5091586;28;20535;-86
2022/09/06 09:57:28;;;;;;;6.38;4.00;;;716.80;1817.60;;;;;;5091819;28;20024;-83
2022/09/06 10:00:01;;;;;;;8.63;4.55;;;716.90;1766.40;;;;;;5091481;28;20024;-84
2022/09/06 10:02:34;;;;;;;6.95;4.45;;;717.00;1766.40;;;;;;5091532;28;20465;-81
2022/09/06 10:05:11;;;;;;;17.55;4.90;;;717.00;1740.80;;;;;;5092796;28;20489;-82
2022/09/06 10:07:57;;;;;;;4.90;3.78;;;717.10;1740.80;;;;;;5094749;28;20128;-82
2022/09/06 10:10:30;;;;;;;5.47;3.60;;;717.30;1638.40;;;;;;5094633;28;20125;-82
2022/09/06 10:13:29;;;;;;;6.38;3.92;;;717.40;1766.40;;;;;;5094996;28;20035;-82
2022/09/06 10:15:57;;;;;;;4.80;3.88;;;;;;;;;;5013724;28;20033;-82
2022/09/06 10:18:34;;;;;;;6.53;3.67;;;742.50;1612.80;;;;;;5006895;28;20078;-82
2022/09/06 10:21:12;;;;;;;6.38;3.58;;;742.60;1561.60;;;;;;4992151;28;20034;-80
2022/09/06 10:24:09;;;;;;;6.55;4.10;;;742.80;1536.00;;;;;;4997320;28;20064;-82
2022/09/06 10:26:54;;;;;;;9.27;4.40;;;742.90;1638.40;;;;;;4996852;28;20403;-83
2022/09/06 10:29:39;;;;;;;8.55;4.05;;;743.00;1638.40;;;;;;5013599;28;20029;-83
2022/09/06 10:32:26;;;;;;;8.25;4.38;;;743.00;1612.80;;;;;;4997292;28;20042;-83
2022/09/06 10:35:13;;;;;;;4.95;3.88;;;743.00;1638.40;;;;;;5013675;28;20029;-88
2022/09/06 10:37:42;;;;;;;5.82;3.67;;;743.10;1638.40;;;;;;5014006;28;20048;-84
2022/09/06 10:40:10;;;;;;;5.78;3.60;;;743.10;1484.80;;;;;;5013671;28;20646;-83
2022/09/06 10:42:47;;;;;;;5.88;3.50;;;743.10;1459.20;;;;;;4996999;28;20116;-82
2022/09/06 10:45:29;;;;;;;7.18;4.50;;;743.00;1561.60;;;;;;5008621;28;20392;-82
2022/09/06 10:48:26;;;;;;;7.15;4.22;;;717.70;1510.40;;;;;;5012871;28;20037;-82
2022/09/06 10:50:54;;;;;;;;;;;717.40;1612.80;;;;;;4887456;29;20527;-84
2022/09/06 10:53:20;;;;;;;6.07;4.55;;;717.10;1664.00;;;;;;4984850;28;19925;-81
2022/09/06 10:55:52;;;;;;;8.20;4.97;;;742.60;1587.20;;;;;;4977298;28;20041;-82
2022/09/06 10:58:26;;;;;;;6.38;4.00;;;743.00;1561.60;;;;;;4990044;28;20096;-81
2022/09/06 11:00:53;;;;;;;7.18;4.28;;;743.30;1484.80;;;;;;4986161;28;20172;-81
2022/09/06 11:03:19;;;;;;;8.55;4.20;;;768.20;1484.80;;;;;;4996336;28;20599;-84
2022/09/06 11:06:01;;;;;;;8.25;4.20;;;768.40;1433.60;;;;;;4992215;28;20125;-84
2022/09/06 11:08:46;;;;;;;6.70;4.25;;;768.20;1459.20;;;;;;4993824;28;20041;-86
2022/09/06 11:11:29;;;;;;;4.85;3.95;;;768.50;1510.40;;;;;;4993790;28;20096;-83
2022/09/06 11:13:54;;;;;;;7.05;4.93;;;768.60;1459.20;;;;;;4977160;28;20034;-86
2022/09/06 11:16:26;;;;;;;8.40;5.13;;;768.90;1433.60;;;;;;4993241;28;20093;-82
2022/09/06 11:18:58;;;;;;;8.10;4.10;;;768.90;1433.60;;;;;;4980429;28;20029;-84
2022/09/06 11:21:32;;;;;;;7.63;4.20;;;793.60;1433.60;;;;;;4963304;28;20201;-87
2022/09/06 11:24:21;;;;;;;9.88;3.83;;;793.70;1408.00;;;;;;4977254;28;20097;-85
2022/09/06 11:27:15;;;;;;;4.82;3.65;;;794.00;1408.00;;;;;;5010739;28;20028;-83
2022/09/06 11:29:46;;;;;;;5.20;3.97;;;794.10;1382.40;;;;;;5093592;28;20042;-85
2022/09/06 11:32:27;;;;;;;9.43;4.10;;;794.20;1382.40;;;;;;5093752;28;20031;-85
2022/09/06 11:34:59;;;;;;;6.63;4.13;;;794.20;1382.40;;;;;;5093400;28;20046;-85
2022/09/06 11:37:34;;;;;;;5.38;4.18;;;794.00;1356.80;;;;;;5093511;28;20020;-85
2022/09/06 11:40:17;;;;;;;13.52;4.43;;;794.00;1408.00;;;;;;5090842;28;20023;-85
2022/09/06 11:42:43;;;;;;;7.72;3.92;;;794.20;1382.40;;;;;;5084431;28;20107;-84
2022/09/06 11:45:21;;;;;;;6.53;4.35;;;794.20;1356.80;;;;;;5092977;28;20047;-85
2022/09/06 11:47:49;;;;;;;8.35;4.25;;;794.20;1356.80;;;;;;5093314;28;20027;-84
2022/09/06 11:50:26;;;;;;;5.93;3.85;;;794.40;1331.20;;;;;;5093162;28;20016;-84
2022/09/06 11:53:16;;;;;;;7.68;3.22;;;794.50;1280.00;;;;;;5093086;28;20488;-83
2022/09/06 11:55:52;;;;;;;7.97;3.75;;;819.30;1254.40;;;;;;5093166;28;20028;-85
2022/09/06 11:58:40;;;;;;;4.80;3.45;;;819.30;1254.40;;;;;;5092970;28;20028;-84
2022/09/06 12:01:12;;;;;;;7.03;3.92;;;819.50;1228.80;;;;;;5085230;28;20133;-84
2022/09/06 12:03:49;;;;;;;6.88;3.25;;;819.30;1254.40;;;;;;5092992;28;20026;-85
2022/09/06 12:06:18;;;;;;;4.72;2.88;;;819.40;1203.20;;;;;;5093175;28;20047;-84
2022/09/06 12:08:49;;;;;;;5.18;3.50;;;819.40;1254.40;;;;;;5089104;28;20032;-82
2022/09/06 12:11:35;;;;;;;5.10;3.42;;;819.40;1203.20;;;;;;5083865;28;20029;-86
2022/09/06 12:14:25;;;;;;;5.68;3.95;;;819.50;1177.60;;;;;;5061151;28;20491;-82
2022/09/06 12:17:00;;;;;;;10.18;3.70;;;819.80;1203.20;;;;;;5080919;28;20056;-86
2022/09/06 12:19:41;;;;;;;5.05;3.80;;;794.50;1280.00;;;;;;5091343;28;20118;-85
2022/09/06 12:22:29;;;;;;;4.47;3.20;;;819.30;1228.80;;;;;;5063679;28;20032;-84